createdAt,value
2022-09-15T00:01:13.200Z,22.98
2022-09-15T00:03:42.952Z,24.48
2022-09-15T00:06:11.307Z,27.05
2022-09-15T00:08:40.663Z,22.98
2022-09-15T00:11:11.191Z,21.15
2022-09-15T00:13:41.227Z,24.45
2022-09-15T00:16:14.610Z,21.65
2022-09-15T00:18:47.172Z,21.70
2022-09-15T00:21:18.313Z,22.85
2022-09-15T00:23:46.949Z,24.08
2022-09-15T00:26:21.177Z,23.88
2022-09-15T00:28:49.808Z,20.20
2022-09-15T00:31:19.800Z,20.98
2022-09-15T00:33:50.619Z,18.98
2022-09-15T00:36:19.925Z,23.67
2022-09-15T00:38:48.337Z,19.50
2022-09-15T00:41:19.036Z,16.80
2022-09-15T00:43:50.496Z,17.08
2022-09-15T00:46:21.661Z,24.08
2022-09-15T00:48:55.005Z,19.17
2022-09-15T00:51:27.081Z,16.05
2022-09-15T00:53:55.340Z,15.20
2022-09-15T00:56:24.274Z,18.15
2022-09-15T00:58:58.098Z,17.42
2022-09-15T01:01:28.817Z,14.68
2022-09-15T01:03:58.880Z,14.43
2022-09-15T01:06:31.819Z,18.05
2022-09-15T01:09:07.725Z,15.93
2022-09-15T01:11:36.279Z,14.35
2022-09-15T01:14:04.285Z,18.27
2022-09-15T01:16:43.739Z,23.85
2022-09-15T01:19:43.494Z,18.67
2022-09-15T01:22:21.557Z,20.52
2022-09-15T01:25:04.467Z,17.85
2022-09-15T01:28:16.303Z,17.48
2022-09-15T01:30:52.180Z,20.15
2022-09-15T01:33:29.732Z,16.75
2022-09-15T01:36:05.676Z,16.38
2022-09-15T01:38:43.059Z,14.57
2022-09-15T01:41:16.632Z,18.15
2022-09-15T01:43:50.779Z,16.17
2022-09-15T01:46:22.574Z,15.50
2022-09-15T01:48:54.010Z,21.23
2022-09-15T01:51:25.060Z,16.52
2022-09-15T01:53:55.410Z,15.52
2022-09-15T01:56:23.238Z,12.77
2022-09-15T01:58:52.278Z,15.73
2022-09-15T02:01:28.578Z,16.73
2022-09-15T02:04:01.099Z,12.07
2022-09-15T02:06:37.756Z,17.40
2022-09-15T02:09:13.463Z,17.15
2022-09-15T02:11:53.477Z,15.77
2022-09-15T02:14:36.301Z,18.45
2022-09-15T02:17:06.567Z,15.23
2022-09-15T02:19:41.101Z,14.70
2022-09-15T02:22:14.152Z,14.60
2022-09-15T02:24:45.289Z,15.98
2022-09-15T02:27:22.196Z,14.90
2022-09-15T02:29:53.515Z,12.02
2022-09-15T02:32:28.361Z,15.75
2022-09-15T02:34:59.550Z,15.40
2022-09-15T02:37:29.169Z,15.05
2022-09-15T02:39:58.978Z,19.20
2022-09-15T02:42:28.109Z,13.05
2022-09-15T02:44:56.782Z,16.13
2022-09-15T02:47:26.294Z,17.42
2022-09-15T02:49:54.438Z,17.38
2022-09-15T02:52:22.684Z,16.90
2022-09-15T02:54:51.050Z,24.45
2022-09-15T02:57:18.807Z,14.25
2022-09-15T03:00:04.446Z,16.73
2022-09-15T03:02:33.786Z,22.23
2022-09-15T03:05:01.538Z,17.98
2022-09-15T03:07:30.613Z,17.30
2022-09-15T03:09:58.352Z,23.83
2022-09-15T03:12:26.255Z,19.80
2022-09-15T03:14:54.472Z,19.98
2022-09-15T03:17:22.277Z,16.88
2022-09-15T03:19:52.607Z,17.77
2022-09-15T03:22:20.369Z,15.73
2022-09-15T03:24:48.249Z,20.70
2022-09-15T03:27:16.385Z,17.42
2022-09-15T03:29:44.149Z,17.45
2022-09-15T03:32:12.314Z,15.32
2022-09-15T03:34:40.058Z,15.02
2022-09-15T03:37:09.205Z,13.55
2022-09-15T03:39:37.907Z,14.65
2022-09-15T03:42:06.253Z,18.23
2022-09-15T03:44:34.487Z,16.08
2022-09-15T03:47:02.628Z,16.05
2022-09-15T03:49:30.385Z,17.08
2022-09-15T03:51:58.812Z,15.18
2022-09-15T03:54:28.082Z,18.00
2022-09-15T03:56:56.192Z,18.05
2022-09-15T03:59:24.734Z,15.65
2022-09-15T04:01:52.494Z,18.40
2022-09-15T04:04:20.868Z,20.23
2022-09-15T04:06:48.611Z,18.90
2022-09-15T04:09:16.377Z,18.48
2022-09-15T04:11:45.947Z,17.27
2022-09-15T04:14:13.818Z,19.98
2022-09-15T04:16:42.093Z,24.20
2022-09-15T04:19:09.939Z,21.77
2022-09-15T04:21:37.686Z,21.17
2022-09-15T04:24:06.365Z,22.25
2022-09-15T04:26:36.780Z,21.77
2022-09-15T04:29:13.423Z,19.33
2022-09-15T04:31:41.396Z,21.83
2022-09-15T04:34:09.448Z,25.90
2022-09-15T04:36:37.506Z,27.50
2022-09-15T04:39:05.420Z,22.92
2022-09-15T04:41:34.798Z,24.30
2022-09-15T04:44:03.752Z,24.55
2022-09-15T04:46:33.273Z,27.73
2022-09-15T04:49:01.593Z,26.27
2022-09-15T04:51:29.628Z,25.95
2022-09-15T04:53:57.424Z,23.60
2022-09-15T04:56:27.396Z,25.55
2022-09-15T04:59:02.488Z,22.17
2022-09-15T05:01:35.759Z,23.75
2022-09-15T05:04:05.074Z,23.98
2022-09-15T05:06:34.772Z,25.85
2022-09-15T05:09:09.079Z,26.75
2022-09-15T05:14:06.052Z,25.10
2022-09-15T05:16:35.240Z,24.92
2022-09-15T05:19:05.241Z,21.63
2022-09-15T05:21:33.154Z,22.42
2022-09-15T05:24:00.848Z,26.15
2022-09-15T05:26:31.128Z,22.70
2022-09-15T05:28:59.749Z,22.35
2022-09-15T05:31:31.416Z,25.17
2022-09-15T05:34:02.448Z,21.90
2022-09-15T05:36:30.734Z,20.25
2022-09-15T05:38:59.537Z,20.45
2022-09-15T05:41:28.565Z,27.85
2022-09-15T05:43:57.948Z,20.52
2022-09-15T05:46:27.660Z,16.65
2022-09-15T05:48:57.416Z,17.55
2022-09-15T05:51:26.625Z,20.05
2022-09-15T05:53:54.875Z,21.10
2022-09-15T05:56:22.906Z,18.23
2022-09-15T05:58:51.078Z,19.52
2022-09-15T06:01:21.156Z,19.25
2022-09-15T06:03:49.342Z,21.75
2022-09-15T06:06:17.305Z,18.48
2022-09-15T06:08:52.786Z,17.55
2022-09-15T06:11:25.527Z,22.33
2022-09-15T06:13:54.075Z,24.08
2022-09-15T06:16:24.348Z,22.50
2022-09-15T06:18:54.075Z,18.83
2022-09-15T06:21:24.078Z,29.08
2022-09-15T06:23:55.863Z,29.27
2022-09-15T06:26:25.014Z,25.25
2022-09-15T06:28:54.978Z,19.50
2022-09-15T06:31:23.961Z,27.67
2022-09-15T06:33:54.637Z,34.85
2022-09-15T06:36:24.859Z,26.63
2022-09-15T06:38:54.683Z,31.05
2022-09-15T06:41:23.054Z,29.90
2022-09-15T06:43:51.551Z,26.48
2022-09-15T06:46:20.951Z,28.63
2022-09-15T06:48:49.300Z,29.52
2022-09-15T06:51:18.921Z,35.83
2022-09-15T06:53:47.048Z,36.47
2022-09-15T06:56:18.717Z,30.25
2022-09-15T06:58:48.886Z,37.15
2022-09-15T07:01:23.667Z,32.05
2022-09-15T07:03:52.052Z,36.63
2022-09-15T07:06:20.265Z,32.63
2022-09-15T07:08:48.731Z,33.55
2022-09-15T07:11:19.249Z,31.52
2022-09-15T07:13:48.246Z,32.47
2022-09-15T07:16:17.108Z,35.22
2022-09-15T07:18:44.879Z,28.98
2022-09-15T07:21:15.313Z,35.67
2022-09-15T07:23:44.089Z,32.50
2022-09-15T07:26:14.599Z,32.78
2022-09-15T07:28:46.236Z,30.25
2022-09-15T07:31:16.876Z,30.38
2022-09-15T07:33:44.888Z,32.92
2022-09-15T07:36:13.560Z,29.73
2022-09-15T07:38:43.350Z,33.95
2022-09-15T07:41:14.415Z,30.80
2022-09-15T07:43:46.829Z,34.00
2022-09-15T07:46:15.197Z,33.10
2022-09-15T07:48:45.810Z,36.50
2022-09-15T07:51:14.115Z,28.92
2022-09-15T07:53:42.762Z,27.02
2022-09-15T07:56:10.570Z,32.25
2022-09-15T07:58:38.340Z,30.73
2022-09-15T08:01:11.534Z,34.30
2022-09-15T08:03:41.940Z,33.03
2022-09-15T08:06:11.160Z,35.25
2022-09-15T08:08:40.337Z,28.63
2022-09-15T08:11:08.604Z,31.52
2022-09-15T08:13:36.993Z,35.63
2022-09-15T08:16:11.673Z,32.95
2022-09-15T08:18:42.290Z,36.15
2022-09-15T08:21:12.219Z,27.88
2022-09-15T08:23:40.718Z,33.25
2022-09-15T08:26:13.783Z,29.45
2022-09-15T08:28:43.133Z,30.25
2022-09-15T08:31:14.951Z,28.67
2022-09-15T08:33:45.840Z,30.17
2022-09-15T08:36:14.656Z,28.88
2022-09-15T08:38:44.809Z,27.55
2022-09-15T08:41:16.504Z,29.38
2022-09-15T08:43:49.203Z,27.98
2022-09-15T08:46:25.567Z,26.55
2022-09-15T08:49:02.986Z,25.83
2022-09-15T08:51:38.497Z,26.30
2022-09-15T08:54:12.125Z,27.55
2022-09-15T08:56:43.245Z,24.45
2022-09-15T08:59:15.776Z,25.80
2022-09-15T09:01:59.548Z,25.15
2022-09-15T09:05:11.285Z,24.65
2022-09-15T09:07:58.279Z,24.83
2022-09-15T09:10:33.847Z,25.75
2022-09-15T09:13:16.239Z,28.60
2022-09-15T09:16:00.758Z,25.38
2022-09-15T09:18:57.793Z,25.30
2022-09-15T09:21:31.078Z,23.90
2022-09-15T09:24:06.435Z,26.98
2022-09-15T09:29:12.705Z,22.45
2022-09-15T09:31:41.940Z,30.13
2022-09-15T09:34:22.138Z,24.02
2022-09-15T09:36:54.222Z,23.45
2022-09-15T09:39:24.170Z,25.70
2022-09-15T09:41:52.209Z,27.48
2022-09-15T09:44:20.644Z,28.63
2022-09-15T09:46:49.948Z,24.88
2022-09-15T09:49:24.863Z,23.63
2022-09-15T09:51:54.804Z,24.25
2022-09-15T09:54:25.174Z,28.05
2022-09-15T09:56:54.850Z,27.90
2022-09-15T09:59:51.211Z,23.85
2022-09-15T10:02:21.937Z,20.15
2022-09-15T10:04:55.697Z,20.83
2022-09-15T10:07:27.438Z,19.40
2022-09-15T10:09:57.515Z,16.17
2022-09-15T10:12:34.248Z,20.38
2022-09-15T10:15:06.721Z,19.70
2022-09-15T10:17:44.082Z,17.77
2022-09-15T10:20:29.094Z,19.38
2022-09-15T10:23:06.719Z,12.87
2022-09-15T10:26:00.695Z,11.95
2022-09-15T10:28:28.007Z,15.80
2022-09-15T10:31:03.114Z,17.20
2022-09-15T10:33:32.661Z,10.65
2022-09-15T10:36:09.623Z,11.93
2022-09-15T10:38:44.108Z,10.52
2022-09-15T10:41:27.044Z,8.52
2022-09-15T10:44:19.856Z,9.38
2022-09-15T10:46:57.014Z,8.43
2022-09-15T10:49:51.063Z,10.80
2022-09-15T10:52:31.497Z,8.30
2022-09-15T10:55:10.396Z,8.15
2022-09-15T10:57:55.104Z,8.02
2022-09-15T11:00:24.202Z,6.38
2022-09-15T11:03:16.209Z,9.38
2022-09-15T11:05:57.158Z,9.30
2022-09-15T11:08:52.793Z,6.97
2022-09-15T11:11:29.189Z,7.53
2022-09-15T11:14:07.914Z,11.98
2022-09-15T11:16:49.126Z,6.80
2022-09-15T11:19:34.520Z,7.15
2022-09-15T11:22:05.202Z,11.05
2022-09-15T11:24:43.705Z,5.07
2022-09-15T11:27:18.329Z,5.35
2022-09-15T11:30:05.129Z,5.43
2022-09-15T11:32:40.339Z,8.65
2022-09-15T11:35:35.400Z,6.95
2022-09-15T11:38:15.347Z,9.52
2022-09-15T11:40:50.500Z,3.75
2022-09-15T11:43:25.309Z,4.68
2022-09-15T11:45:58.705Z,9.10
2022-09-15T11:48:32.130Z,6.75
2022-09-15T11:51:04.148Z,3.88
2022-09-15T11:53:37.997Z,3.03
2022-09-15T11:56:17.034Z,9.77
2022-09-15T11:59:01.706Z,8.30
2022-09-15T12:01:35.169Z,7.45
2022-09-15T12:04:09.962Z,3.67
2022-09-15T12:06:46.165Z,6.70
2022-09-15T12:09:17.276Z,12.95
2022-09-15T12:11:49.982Z,4.28
2022-09-15T12:14:28.437Z,13.30
2022-09-15T12:16:58.343Z,8.23
2022-09-15T12:19:41.167Z,2.65
2022-09-15T12:22:19.880Z,4.13
2022-09-15T12:25:00.600Z,6.93
2022-09-15T12:27:31.374Z,4.13
2022-09-15T12:30:01.706Z,8.77
2022-09-15T12:32:32.544Z,6.60
2022-09-15T12:35:31.299Z,10.15
2022-09-15T12:38:01.786Z,6.78
2022-09-15T12:40:37.310Z,5.55
2022-09-15T12:43:23.235Z,4.00
2022-09-15T12:48:28.732Z,3.30
2022-09-15T12:51:00.272Z,7.45
2022-09-15T12:53:32.190Z,7.38
2022-09-15T12:56:05.567Z,2.67
2022-09-15T12:58:38.464Z,10.23
2022-09-15T13:01:34.897Z,6.72
2022-09-15T13:04:28.123Z,7.90
2022-09-15T13:07:39.402Z,2.85
2022-09-15T13:13:24.526Z,6.47
2022-09-15T13:15:56.919Z,2.58
2022-09-15T13:18:27.324Z,4.28
2022-09-15T13:21:01.470Z,8.65
2022-09-15T13:23:37.874Z,9.32
2022-09-15T13:26:10.384Z,3.08
2022-09-15T13:28:38.985Z,5.07
2022-09-15T13:31:25.431Z,5.05
2022-09-15T13:40:50.576Z,5.65
2022-09-15T13:43:46.045Z,3.95
2022-09-15T13:46:29.886Z,4.30
2022-09-15T13:49:17.392Z,15.75
2022-09-15T13:51:53.362Z,5.53
2022-09-15T13:54:22.277Z,6.10
2022-09-15T13:56:53.479Z,6.10
2022-09-15T13:59:27.103Z,5.10
2022-09-15T14:01:58.936Z,10.32
2022-09-15T14:04:31.355Z,2.15
2022-09-15T14:07:02.243Z,15.23
2022-09-15T14:09:34.449Z,3.63
2022-09-15T14:12:06.375Z,3.72
2022-09-15T14:14:39.941Z,4.20
2022-09-15T14:17:20.279Z,3.80
2022-09-15T14:19:50.737Z,3.65
2022-09-15T14:22:27.514Z,4.82
2022-09-15T14:24:57.932Z,5.28
2022-09-15T14:27:27.910Z,5.53
2022-09-15T14:29:58.736Z,4.90
2022-09-15T14:32:30.187Z,4.63
2022-09-15T14:35:02.352Z,5.57
2022-09-15T14:37:32.252Z,5.93
2022-09-15T14:40:02.294Z,6.05
2022-09-15T14:42:32.964Z,8.98
2022-09-15T14:48:04.773Z,6.53
2022-09-15T14:50:33.799Z,5.65
2022-09-15T14:53:06.089Z,4.47
2022-09-15T14:55:38.223Z,8.02
2022-09-15T14:58:13.235Z,5.10
2022-09-15T15:00:49.913Z,4.57
2022-09-15T15:03:28.822Z,4.70
2022-09-15T15:06:02.959Z,5.80
2022-09-15T15:08:43.233Z,8.05
2022-09-15T15:11:16.570Z,9.65
2022-09-15T15:13:48.892Z,4.60
2022-09-15T15:16:23.824Z,5.63
2022-09-15T15:18:57.768Z,6.57
2022-09-15T15:21:36.210Z,5.63
2022-09-15T15:24:10.964Z,6.13
2022-09-15T15:26:40.883Z,7.22
2022-09-15T15:29:30.558Z,3.25
2022-09-15T15:32:06.263Z,6.13
2022-09-15T15:34:36.508Z,6.28
2022-09-15T15:37:05.068Z,6.53
2022-09-15T15:39:33.244Z,7.60
2022-09-15T15:42:04.543Z,7.10
2022-09-15T15:44:33.588Z,8.30
2022-09-15T15:47:05.278Z,8.70
2022-09-15T15:49:42.357Z,4.82
2022-09-15T15:52:19.518Z,3.72
2022-09-15T15:54:47.648Z,4.32
2022-09-15T15:57:24.513Z,5.80
2022-09-15T15:59:57.218Z,2.70
2022-09-15T16:02:27.507Z,3.38
2022-09-15T16:04:57.259Z,4.22
2022-09-15T16:07:31.111Z,6.43
2022-09-15T16:12:33.186Z,5.15
2022-09-15T16:15:04.052Z,4.20
2022-09-15T16:17:32.535Z,6.35
2022-09-15T16:20:02.136Z,4.50
2022-09-15T16:22:30.150Z,6.75
2022-09-15T16:24:58.431Z,4.50
2022-09-15T16:27:26.656Z,9.20
2022-09-15T16:29:55.049Z,4.72
2022-09-15T16:32:25.348Z,3.85
2022-09-15T16:34:54.326Z,5.10
2022-09-15T16:37:23.479Z,9.07
2022-09-15T16:39:53.105Z,4.18
2022-09-15T16:42:20.838Z,10.40
2022-09-15T16:44:49.060Z,6.63
2022-09-15T16:47:17.026Z,7.10
2022-09-15T16:49:44.788Z,5.18
2022-09-15T16:52:14.168Z,6.20
2022-09-15T16:54:43.261Z,3.38
2022-09-15T16:57:11.614Z,3.80
2022-09-15T16:59:39.331Z,7.15
2022-09-15T17:02:14.969Z,5.72
2022-09-15T17:04:42.735Z,5.10
2022-09-15T17:07:10.457Z,8.70
2022-09-15T17:09:38.653Z,7.63
2022-09-15T17:12:10.264Z,9.75
2022-09-15T17:14:38.055Z,7.32
2022-09-15T17:17:06.228Z,8.05
2022-09-15T17:19:33.951Z,7.25
2022-09-15T17:22:02.092Z,5.18
2022-09-15T17:24:29.835Z,2.92
2022-09-15T17:26:57.578Z,7.53
2022-09-15T17:29:27.263Z,8.27
2022-09-15T17:31:54.955Z,7.70
2022-09-15T17:34:22.714Z,3.97
2022-09-15T17:36:50.887Z,3.45
2022-09-15T17:39:18.593Z,3.97
2022-09-15T17:41:47.661Z,4.72
2022-09-15T17:44:15.369Z,10.63
2022-09-15T17:46:44.530Z,4.95
2022-09-15T17:49:12.713Z,3.30
2022-09-15T17:51:40.446Z,6.05
2022-09-15T17:54:10.774Z,5.80
2022-09-15T17:56:38.931Z,3.20
2022-09-15T17:59:06.660Z,5.78
2022-09-15T18:01:34.947Z,3.25
2022-09-15T18:04:04.414Z,4.13
2022-09-15T18:06:32.526Z,5.32
2022-09-15T18:09:00.290Z,4.57
2022-09-15T18:11:28.853Z,3.10
2022-09-15T18:13:58.718Z,4.63
2022-09-15T18:16:26.450Z,6.03
2022-09-15T18:18:54.298Z,6.65
2022-09-15T18:21:29.178Z,4.20
2022-09-15T18:23:56.990Z,5.35
2022-09-15T18:26:26.601Z,8.57
2022-09-15T18:28:55.923Z,8.50
2022-09-15T18:31:23.876Z,4.47
2022-09-15T18:33:51.677Z,3.50
2022-09-15T18:36:19.461Z,9.15
2022-09-15T18:38:48.660Z,5.10
2022-09-15T18:41:16.414Z,5.82
2022-09-15T18:43:49.428Z,6.78
2022-09-15T18:46:17.491Z,5.03
2022-09-15T18:48:45.580Z,6.80
2022-09-15T18:51:19.726Z,5.35
2022-09-15T18:53:54.485Z,4.57
2022-09-15T18:56:22.813Z,6.38
2022-09-15T18:58:53.714Z,4.68
2022-09-15T19:01:21.644Z,6.15
2022-09-15T19:03:49.594Z,9.52
2022-09-15T19:06:17.288Z,3.75
2022-09-15T19:08:46.676Z,6.15
2022-09-15T19:11:16.093Z,8.32
2022-09-15T19:13:43.898Z,3.47
2022-09-15T19:16:11.694Z,8.48
2022-09-15T19:18:39.907Z,4.65
2022-09-15T19:21:08.710Z,4.13
2022-09-15T19:23:39.230Z,4.40
2022-09-15T19:26:09.096Z,5.85
2022-09-15T19:28:38.216Z,9.20
2022-09-15T19:31:06.406Z,4.22
2022-09-15T19:33:34.163Z,3.58
2022-09-15T19:36:11.013Z,9.55
2022-09-15T19:38:50.739Z,6.05
2022-09-15T19:41:19.075Z,8.85
2022-09-15T19:43:48.556Z,8.00
2022-09-15T19:46:18.393Z,5.00
2022-09-15T19:48:49.985Z,7.85
2022-09-15T19:51:18.676Z,7.00
2022-09-15T19:53:48.819Z,4.15
2022-09-15T19:56:18.968Z,7.15
2022-09-15T19:58:48.207Z,6.45
2022-09-15T20:01:16.659Z,6.60
2022-09-15T20:03:44.734Z,6.32
2022-09-15T20:06:12.993Z,3.03
2022-09-15T20:08:41.784Z,3.78
2022-09-15T20:11:10.506Z,3.58
2022-09-15T20:13:41.441Z,8.32
2022-09-15T20:16:15.414Z,7.57
2022-09-15T20:18:43.162Z,6.60
2022-09-15T20:21:21.778Z,3.10
2022-09-15T20:23:56.756Z,6.07
2022-09-15T20:26:26.155Z,7.07
2022-09-15T20:28:54.575Z,25.40
2022-09-15T20:31:25.281Z,5.45
2022-09-15T20:33:54.524Z,7.38
2022-09-15T20:36:24.282Z,7.78
2022-09-15T20:38:54.492Z,8.38
2022-09-15T20:41:24.682Z,5.90
2022-09-15T20:43:52.860Z,3.45
2022-09-15T20:46:23.229Z,4.38
2022-09-15T20:48:52.991Z,4.88
2022-09-15T20:51:23.437Z,4.88
2022-09-15T20:53:53.995Z,3.83
2022-09-15T20:56:25.682Z,5.13
2022-09-15T20:58:54.316Z,6.47
2022-09-15T21:01:24.232Z,8.90
2022-09-15T21:03:55.356Z,4.68
2022-09-15T21:06:26.133Z,4.38
2022-09-15T21:08:55.885Z,12.63
2022-09-15T21:11:24.491Z,4.97
2022-09-15T21:13:52.265Z,9.90
2022-09-15T21:16:22.642Z,8.30
2022-09-15T21:18:51.362Z,10.60
2022-09-15T21:21:22.279Z,6.68
2022-09-15T21:23:51.666Z,4.25
2022-09-15T21:26:20.567Z,6.60
2022-09-15T21:28:49.279Z,4.35
2022-09-15T21:31:19.581Z,8.65
2022-09-15T21:33:49.122Z,6.93
2022-09-15T21:36:21.688Z,5.85
2022-09-15T21:38:51.975Z,7.07
2022-09-15T21:41:22.630Z,9.55
2022-09-15T21:43:53.112Z,7.57
2022-09-15T21:46:21.429Z,4.60
2022-09-15T21:48:50.419Z,5.80
2022-09-15T21:51:24.226Z,8.43
2022-09-15T21:53:55.601Z,5.30
2022-09-15T21:56:24.061Z,8.10
2022-09-15T21:58:52.373Z,4.78
2022-09-15T22:01:22.488Z,7.10
2022-09-15T22:03:52.928Z,7.03
2022-09-15T22:06:22.159Z,9.35
2022-09-15T22:08:50.616Z,3.33
2022-09-15T22:11:19.727Z,8.48
2022-09-15T22:13:47.802Z,10.02
2022-09-15T22:16:17.890Z,5.80
2022-09-15T22:18:46.023Z,8.98
2022-09-15T22:21:16.306Z,10.82
2022-09-15T22:23:46.005Z,6.57
2022-09-15T22:26:16.377Z,6.97
2022-09-15T22:28:47.004Z,7.38
2022-09-15T22:31:18.732Z,7.75
2022-09-15T22:33:47.190Z,5.43
2022-09-15T22:36:16.479Z,9.27
2022-09-15T22:38:44.894Z,4.18
2022-09-15T22:41:15.875Z,4.82
2022-09-15T22:43:47.895Z,7.68
2022-09-15T22:46:16.628Z,7.80
2022-09-15T22:48:45.037Z,9.10
2022-09-15T22:51:13.468Z,5.32
2022-09-15T22:53:41.628Z,8.95
2022-09-15T22:56:12.013Z,6.20
2022-09-15T22:58:43.723Z,6.70
2022-09-15T23:01:15.009Z,6.53
2022-09-15T23:03:44.105Z,4.90
2022-09-15T23:06:11.935Z,6.03
2022-09-15T23:08:39.697Z,9.20
2022-09-15T23:11:10.487Z,8.85
2022-09-15T23:13:38.812Z,5.85
2022-09-15T23:16:07.808Z,8.52
2022-09-15T23:18:37.680Z,8.60
2022-09-15T23:21:07.915Z,7.57
2022-09-15T23:23:36.864Z,7.72
2022-09-15T23:26:06.116Z,6.78
2022-09-15T23:28:34.580Z,8.18
2022-09-15T23:31:02.517Z,6.30
2022-09-15T23:33:32.440Z,6.13
2022-09-15T23:36:02.128Z,11.23
2022-09-15T23:38:29.902Z,7.30
2022-09-15T23:40:58.529Z,8.25
2022-09-15T23:43:26.285Z,7.65
2022-09-15T23:45:54.095Z,6.90
2022-09-15T23:48:22.980Z,3.47
2022-09-15T23:50:50.823Z,6.85
2022-09-15T23:53:20.483Z,7.32
2022-09-15T23:55:49.174Z,4.38
2022-09-15T23:58:17.174Z,9.55
